createdAt,value
2023-04-02T00:01:22.966Z,8.52
2023-04-02T00:03:54.117Z,8.05
2023-04-02T00:06:33.160Z,9.85
2023-04-02T00:11:39.146Z,9.70
2023-04-02T00:14:23.799Z,10.45
2023-04-02T00:16:54.136Z,10.02
2023-04-02T00:19:53.020Z,9.43
2023-04-02T00:22:27.029Z,10.38
2023-04-02T00:24:57.148Z,9.70
2023-04-02T00:27:24.584Z,9.55
2023-04-02T00:29:57.033Z,10.15
2023-04-02T00:32:32.287Z,9.35
2023-04-02T00:35:00.712Z,9.40
2023-04-02T00:42:40.360Z,9.80
2023-04-02T00:45:30.194Z,9.98
2023-04-02T00:48:34.224Z,9.80
2023-04-02T00:51:22.514Z,10.75
2023-04-02T00:53:54.169Z,9.75
2023-04-02T00:56:31.296Z,9.65
2023-04-02T00:58:59.090Z,9.10
2023-04-02T01:01:37.949Z,9.43
2023-04-02T01:04:06.339Z,10.23
2023-04-02T01:09:43.060Z,10.07
2023-04-02T01:12:44.909Z,9.15
2023-04-02T01:15:36.207Z,9.27
2023-04-02T01:18:06.640Z,11.02
2023-04-02T01:21:02.739Z,9.38
2023-04-02T01:23:52.948Z,10.30
2023-04-02T01:26:56.584Z,8.05
2023-04-02T01:29:38.579Z,8.80
2023-04-02T01:32:18.592Z,8.20
2023-04-02T01:34:51.446Z,8.15
2023-04-02T01:37:36.942Z,7.93
2023-04-02T01:40:28.852Z,8.45
2023-04-02T01:43:39.318Z,8.32
2023-04-02T01:46:32.988Z,8.65
2023-04-02T01:49:21.569Z,8.48
2023-04-02T01:51:56.850Z,8.95
2023-04-02T01:54:29.072Z,8.02
2023-04-02T01:56:57.706Z,8.20
2023-04-02T01:59:26.531Z,9.25
2023-04-02T02:02:05.615Z,7.68
2023-04-02T02:04:36.029Z,7.72
2023-04-02T02:07:05.398Z,8.57
2023-04-02T02:09:36.678Z,8.27
2023-04-02T02:12:05.486Z,9.38
2023-04-02T02:14:33.669Z,7.88
2023-04-02T02:17:02.978Z,7.60
2023-04-02T02:19:42.204Z,7.43
2023-04-02T02:22:24.416Z,7.85
2023-04-02T02:24:52.148Z,7.85
2023-04-02T02:27:25.835Z,7.50
2023-04-02T02:30:19.457Z,6.88
2023-04-02T02:33:14.604Z,6.40
2023-04-02T02:35:49.903Z,7.72
2023-04-02T02:38:38.877Z,7.72
2023-04-02T02:41:24.838Z,7.43
2023-04-02T02:44:00.443Z,7.13
2023-04-02T02:46:30.580Z,6.72
2023-04-02T02:49:00.154Z,6.32
2023-04-02T02:52:08.344Z,7.15
2023-04-02T02:54:55.067Z,6.85
2023-04-02T03:00:00.134Z,6.95
2023-04-02T03:02:30.335Z,6.72
2023-04-02T03:04:59.486Z,7.30
2023-04-02T03:07:31.252Z,6.70
2023-04-02T03:10:10.773Z,7.25
2023-04-02T03:12:54.430Z,7.68
2023-04-02T03:15:59.136Z,6.93
2023-04-02T03:18:54.189Z,7.30
2023-04-02T03:21:46.300Z,7.07
2023-04-02T03:24:28.312Z,6.90
2023-04-02T03:27:39.596Z,6.88
2023-04-02T03:30:31.230Z,6.28
2023-04-02T03:33:08.648Z,6.30
2023-04-02T03:35:47.097Z,6.32
2023-04-02T03:38:27.682Z,6.72
2023-04-02T03:41:17.372Z,6.15
2023-04-02T03:43:52.679Z,5.72
2023-04-02T03:46:34.123Z,6.32
2023-04-02T03:49:24.288Z,6.43
2023-04-02T03:52:03.194Z,5.65
2023-04-02T03:54:31.487Z,4.88
2023-04-02T03:57:00.178Z,6.57
2023-04-02T03:59:52.650Z,5.82
2023-04-02T04:02:44.158Z,5.53
2023-04-02T04:05:30.861Z,5.57
2023-04-02T04:08:16.264Z,5.72
2023-04-02T04:10:44.050Z,5.38
2023-04-02T04:13:18.705Z,5.45
2023-04-02T04:15:45.913Z,5.47
2023-04-02T04:18:57.355Z,5.40
2023-04-02T04:21:46.386Z,5.32
2023-04-02T04:24:27.358Z,6.40
2023-04-02T04:27:05.035Z,6.10
2023-04-02T04:30:06.600Z,5.40
2023-04-02T04:32:50.262Z,5.45
2023-04-02T04:35:38.631Z,6.47
2023-04-02T04:38:18.448Z,6.28
2023-04-02T04:40:54.439Z,6.35
2023-04-02T04:43:58.741Z,6.63
2023-04-02T04:46:38.833Z,7.47
2023-04-02T04:49:54.284Z,6.55
2023-04-02T04:52:29.725Z,6.75
2023-04-02T04:54:58.488Z,6.72
2023-04-02T04:57:50.944Z,6.65
2023-04-02T05:01:19.564Z,6.95
2023-04-02T05:04:18.268Z,7.57
2023-04-02T05:07:00.662Z,6.72
2023-04-02T05:10:01.639Z,7.05
2023-04-02T05:13:15.863Z,6.57
2023-04-02T05:16:09.322Z,7.47
2023-04-02T05:18:47.617Z,7.18
2023-04-02T05:21:44.884Z,6.83
2023-04-02T05:24:46.871Z,7.22
2023-04-02T05:27:35.603Z,7.03
2023-04-02T05:30:38.623Z,6.50
2023-04-02T05:33:23.913Z,7.15
2023-04-02T05:36:03.756Z,6.65
2023-04-02T05:38:37.634Z,7.13
2023-04-02T05:41:37.076Z,7.15
2023-04-02T05:44:35.785Z,7.37
2023-04-02T05:47:24.521Z,6.82
2023-04-02T05:50:17.104Z,6.68
2023-04-02T05:52:59.650Z,6.07
2023-04-02T05:56:08.524Z,6.28
2023-04-02T05:58:51.538Z,6.57
2023-04-02T06:01:40.609Z,6.88
2023-04-02T06:04:50.142Z,6.45
2023-04-02T06:07:51.016Z,7.43
2023-04-02T06:10:25.025Z,7.13
2023-04-02T06:13:03.897Z,7.13
2023-04-02T06:15:38.195Z,6.88
2023-04-02T06:18:20.134Z,6.88
2023-04-02T06:20:48.867Z,7.70
2023-04-02T06:26:03.808Z,7.93
2023-04-02T06:28:43.332Z,8.40
2023-04-02T06:31:39.079Z,7.32
2023-04-02T06:34:18.294Z,6.28
2023-04-02T06:37:29.204Z,7.70
2023-04-02T06:40:30.650Z,7.85
2023-04-02T06:43:02.365Z,7.10
2023-04-02T06:45:55.385Z,6.22
2023-04-02T06:48:33.421Z,6.40
2023-04-02T06:51:12.064Z,7.45
2023-04-02T06:53:50.703Z,6.93
2023-04-02T06:56:46.916Z,7.15
2023-04-02T06:59:20.857Z,6.75
2023-04-02T07:04:22.254Z,7.20
2023-04-02T07:06:52.270Z,8.35
2023-04-02T07:09:21.161Z,7.18
2023-04-02T07:11:52.086Z,7.60
2023-04-02T07:14:20.176Z,7.45
2023-04-02T07:16:47.799Z,7.00
2023-04-02T07:19:21.991Z,8.27
2023-04-02T07:21:53.890Z,7.63
2023-04-02T07:24:22.587Z,8.23
2023-04-02T07:26:49.873Z,7.70
2023-04-02T07:29:17.782Z,7.20
2023-04-02T07:31:45.178Z,8.40
2023-04-02T07:34:12.584Z,8.33
2023-04-02T07:36:39.826Z,10.23
2023-04-02T07:39:07.192Z,8.93
2023-04-02T07:41:34.413Z,8.10
2023-04-02T07:44:01.606Z,8.25
2023-04-02T07:46:28.940Z,8.75
2023-04-02T07:48:56.219Z,7.05
2023-04-02T07:51:26.301Z,8.30
2023-04-02T07:53:56.424Z,8.15
2023-04-02T07:56:25.489Z,8.52
2023-04-02T07:58:56.042Z,8.73
2023-04-02T08:01:26.813Z,8.23
2023-04-02T08:03:55.864Z,7.72
2023-04-02T08:06:24.448Z,7.75
2023-04-02T08:08:52.507Z,6.95
2023-04-02T08:11:20.982Z,7.63
2023-04-02T08:13:48.290Z,7.60
2023-04-02T08:16:16.229Z,8.00
2023-04-02T08:18:43.411Z,8.65
2023-04-02T08:21:11.808Z,7.47
2023-04-02T08:26:07.178Z,8.52
2023-04-02T08:31:04.919Z,8.73
2023-04-02T08:33:32.698Z,9.93
2023-04-02T08:36:00.062Z,8.80
2023-04-02T08:38:27.327Z,8.57
2023-04-02T08:40:59.963Z,8.20
2023-04-02T08:44:28.228Z,7.40
2023-04-02T08:47:05.697Z,8.15
2023-04-02T08:50:01.220Z,19.02
2023-04-02T08:52:37.419Z,17.15
2023-04-02T08:55:37.377Z,16.20
2023-04-02T08:58:18.408Z,8.95
2023-04-02T09:00:49.068Z,7.55
2023-04-02T09:03:35.677Z,11.77
2023-04-02T09:06:04.652Z,8.82
2023-04-02T09:08:33.362Z,7.80
2023-04-02T09:11:25.181Z,9.10
2023-04-02T09:13:59.488Z,7.85
2023-04-02T09:16:51.371Z,7.25
2023-04-02T09:19:39.186Z,6.93
2023-04-02T09:22:22.499Z,8.23
2023-04-02T09:25:02.386Z,8.23
2023-04-02T09:27:34.141Z,6.80
2023-04-02T09:30:04.257Z,6.43
2023-04-02T09:32:31.784Z,7.35
2023-04-02T09:35:24.436Z,6.45
2023-04-02T09:38:07.760Z,6.07
2023-04-02T09:40:59.704Z,6.28
2023-04-02T09:43:35.704Z,6.68
2023-04-02T09:46:05.114Z,6.30
2023-04-02T09:49:01.312Z,6.50
2023-04-02T09:51:34.823Z,6.68
2023-04-02T09:54:04.992Z,6.50
2023-04-02T09:56:35.818Z,6.18
2023-04-02T09:59:07.434Z,5.68
2023-04-02T10:01:39.008Z,6.35
2023-04-02T10:04:29.857Z,6.32
2023-04-02T10:06:59.240Z,5.72
2023-04-02T10:09:33.701Z,7.00
2023-04-02T10:12:02.999Z,7.22
2023-04-02T10:14:43.526Z,7.10
2023-04-02T10:17:24.620Z,6.70
2023-04-02T10:20:17.391Z,6.88
2023-04-02T10:22:46.302Z,7.40
2023-04-02T10:25:21.455Z,6.05
2023-04-02T10:28:49.240Z,6.03
2023-04-02T10:31:31.876Z,5.90
2023-04-02T10:34:06.717Z,6.40
2023-04-02T10:36:58.042Z,5.60
2023-04-02T10:39:41.288Z,6.00
2023-04-02T10:42:47.030Z,6.35
2023-04-02T10:45:30.349Z,6.80
2023-04-02T10:48:04.167Z,5.32
2023-04-02T10:50:53.481Z,5.25
2023-04-02T10:53:26.773Z,5.18
2023-04-02T10:56:03.611Z,5.72
2023-04-02T10:58:35.544Z,5.22
2023-04-02T11:01:28.968Z,5.22
2023-04-02T11:04:03.303Z,6.07
2023-04-02T11:06:44.705Z,5.30
2023-04-02T11:09:20.409Z,5.05
2023-04-02T11:11:52.654Z,5.07
2023-04-02T11:14:25.610Z,4.82
2023-04-02T11:16:55.819Z,5.53
2023-04-02T11:19:32.128Z,5.72
2023-04-02T11:22:25.004Z,4.90
2023-04-02T11:24:55.706Z,4.60
2023-04-02T11:27:34.063Z,5.75
2023-04-02T11:30:16.472Z,5.25
2023-04-02T11:32:49.792Z,4.63
2023-04-02T11:35:38.315Z,4.60
2023-04-02T11:38:12.621Z,5.47
2023-04-02T11:40:59.354Z,5.40
2023-04-02T11:43:36.205Z,4.95
2023-04-02T11:46:34.891Z,5.65
2023-04-02T11:49:33.894Z,5.18
2023-04-02T11:52:11.503Z,6.40
2023-04-02T11:54:40.680Z,5.65
2023-04-02T11:57:30.915Z,5.90
2023-04-02T12:00:21.751Z,5.82
2023-04-02T12:03:42.224Z,5.05
2023-04-02T12:06:55.245Z,5.80
2023-04-02T12:09:29.154Z,5.30
2023-04-02T12:12:15.172Z,5.90
2023-04-02T12:14:51.229Z,7.97
2023-04-02T12:17:33.587Z,7.13
2023-04-02T12:20:10.590Z,6.40
2023-04-02T12:22:52.085Z,5.53
2023-04-02T12:25:23.147Z,6.35
2023-04-02T12:28:14.657Z,6.45
2023-04-02T12:30:42.297Z,6.50
2023-04-02T12:33:34.042Z,6.13
2023-04-02T12:36:05.092Z,6.00
2023-04-02T12:38:48.618Z,6.05
2023-04-02T12:41:30.591Z,6.20
2023-04-02T12:44:01.058Z,5.60
2023-04-02T12:46:35.276Z,5.80
2023-04-02T12:49:29.390Z,6.75
2023-04-02T12:51:58.717Z,8.82
2023-04-02T12:54:26.149Z,5.63
2023-04-02T12:56:53.843Z,6.23
2023-04-02T12:59:36.734Z,6.22
2023-04-02T13:02:22.036Z,6.60
2023-04-02T13:04:55.387Z,6.40
2023-04-02T13:07:28.703Z,6.05
2023-04-02T13:10:18.459Z,13.70
2023-04-02T13:12:46.291Z,8.63
2023-04-02T13:15:27.207Z,6.88
2023-04-02T13:18:13.740Z,6.30
2023-04-02T13:20:43.214Z,5.63
2023-04-02T13:23:29.125Z,5.80
2023-04-02T13:26:01.918Z,8.45
2023-04-02T13:28:29.395Z,8.00
2023-04-02T13:30:56.670Z,9.60
2023-04-02T13:33:23.951Z,7.70
2023-04-02T13:35:51.327Z,6.38
2023-04-02T13:38:18.706Z,6.18
2023-04-02T13:40:46.550Z,6.60
2023-04-02T13:43:20.060Z,6.95
2023-04-02T13:45:54.904Z,4.90
2023-04-02T13:48:26.321Z,4.30
2023-04-02T13:50:53.558Z,7.63
2023-04-02T13:53:29.777Z,7.65
2023-04-02T13:55:57.421Z,7.03
2023-04-02T13:58:24.766Z,6.38
2023-04-02T14:00:52.129Z,7.67
2023-04-02T14:03:22.581Z,5.77
2023-04-02T14:06:00.992Z,4.55
2023-04-02T14:09:02.229Z,5.25
2023-04-02T14:11:51.468Z,4.43
2023-04-02T14:14:33.741Z,4.43
2023-04-02T14:17:34.921Z,4.43
2023-04-02T14:20:35.238Z,4.00
2023-04-02T14:26:32.828Z,4.28
2023-04-02T14:30:00.941Z,5.60
2023-04-02T14:32:52.153Z,4.50
2023-04-02T14:35:47.260Z,12.23
2023-04-02T14:38:24.732Z,7.15
2023-04-02T14:41:24.921Z,4.90
2023-04-02T14:43:59.747Z,6.28
2023-04-02T14:46:28.882Z,9.00
2023-04-02T14:49:07.286Z,5.15
2023-04-02T14:51:38.603Z,9.48
2023-04-02T14:54:11.931Z,6.63
2023-04-02T14:56:51.216Z,6.35
2023-04-02T14:59:48.685Z,6.10
2023-04-02T15:02:36.039Z,5.53
2023-04-02T15:05:37.889Z,5.32
2023-04-02T15:08:24.991Z,6.07
2023-04-02T15:11:08.087Z,7.50
2023-04-02T15:13:45.615Z,7.55
2023-04-02T15:16:23.634Z,6.65
2023-04-02T15:18:57.443Z,5.72
2023-04-02T15:21:57.543Z,5.90
2023-04-02T15:24:56.488Z,6.22
2023-04-02T15:27:51.342Z,10.05
2023-04-02T15:30:35.373Z,6.05
2023-04-02T15:33:36.551Z,5.80
2023-04-02T15:36:37.079Z,6.93
2023-04-02T15:39:37.927Z,6.72
2023-04-02T15:42:28.081Z,7.15
2023-04-02T15:45:07.362Z,8.38
2023-04-02T15:47:49.725Z,13.25
2023-04-02T15:50:54.512Z,11.52
2023-04-02T15:53:58.094Z,7.85
2023-04-02T15:56:49.635Z,7.82
2023-04-02T15:59:54.416Z,7.05
2023-04-02T16:02:46.512Z,9.10
2023-04-02T16:05:41.113Z,9.93
2023-04-02T16:08:35.874Z,12.40
2023-04-02T16:11:03.148Z,13.30
2023-04-02T16:13:35.945Z,15.05
2023-04-02T16:16:36.302Z,16.08
2023-04-02T16:22:30.473Z,16.13
2023-04-02T16:25:23.090Z,12.88
2023-04-02T16:28:07.864Z,8.82
2023-04-02T16:30:56.668Z,7.68
2023-04-02T16:33:46.401Z,7.33
2023-04-02T16:36:58.760Z,6.93
2023-04-02T16:39:52.140Z,4.93
2023-04-02T16:43:03.527Z,5.85
2023-04-02T16:45:59.151Z,5.60
2023-04-02T16:48:52.034Z,4.53
2023-04-02T16:51:53.765Z,4.63
2023-04-02T16:54:50.815Z,5.22
2023-04-02T16:58:05.597Z,4.90
2023-04-02T17:00:44.365Z,5.00
2023-04-02T17:03:20.503Z,4.85
2023-04-02T17:05:59.806Z,4.75
2023-04-02T17:08:43.718Z,4.25
2023-04-02T17:11:26.978Z,4.47
2023-04-02T17:14:29.796Z,4.05
2023-04-02T17:17:02.469Z,3.83
2023-04-02T17:19:31.788Z,4.05
2023-04-02T17:22:05.229Z,4.18
2023-04-02T17:24:35.846Z,4.28
2023-04-02T17:27:49.555Z,3.70
2023-04-02T17:30:22.227Z,3.90
2023-04-02T17:32:49.636Z,4.25
2023-04-02T17:36:07.506Z,3.57
2023-04-02T17:39:35.810Z,4.30
2023-04-02T17:42:25.665Z,3.72
2023-04-02T17:45:17.560Z,3.53
2023-04-02T17:48:09.375Z,4.18
2023-04-02T17:50:55.477Z,3.15
2023-04-02T17:54:19.545Z,3.75
2023-04-02T17:57:08.476Z,4.07
2023-04-02T18:00:04.645Z,3.35
2023-04-02T18:03:04.024Z,3.40
2023-04-02T18:05:54.538Z,3.60
2023-04-02T18:08:40.238Z,3.88
2023-04-02T18:11:23.638Z,3.25
2023-04-02T18:14:04.607Z,4.00
2023-04-02T18:17:03.957Z,4.43
2023-04-02T18:20:17.838Z,3.10
2023-04-02T18:23:22.373Z,3.13
2023-04-02T18:26:21.449Z,3.70
2023-04-02T18:29:06.709Z,2.90
2023-04-02T18:32:17.918Z,3.83
2023-04-02T18:35:03.756Z,2.97
2023-04-02T18:38:31.589Z,3.40
2023-04-02T18:41:19.252Z,3.90
2023-04-02T18:44:18.321Z,3.28
2023-04-02T18:47:17.295Z,3.45
2023-04-02T18:49:52.924Z,3.03
2023-04-02T18:52:21.552Z,2.97
2023-04-02T18:55:21.369Z,2.67
2023-04-02T18:57:55.538Z,2.85
2023-04-02T19:00:39.261Z,3.20
2023-04-02T19:03:16.080Z,3.03
2023-04-02T19:06:07.734Z,3.00
2023-04-02T19:08:48.511Z,3.22
2023-04-02T19:11:28.831Z,2.97
2023-04-02T19:14:01.403Z,3.00
2023-04-02T19:17:05.091Z,3.10
2023-04-02T19:20:16.758Z,3.10
2023-04-02T19:23:34.425Z,3.38
2023-04-02T19:26:09.501Z,2.85
2023-04-02T19:28:48.378Z,3.63
2023-04-02T19:31:53.624Z,2.85
2023-04-02T19:35:14.548Z,2.90
2023-04-02T19:37:52.046Z,3.17
2023-04-02T19:40:29.133Z,2.78
2023-04-02T19:42:57.255Z,3.40
2023-04-02T19:45:39.814Z,3.20
2023-04-02T19:48:24.438Z,3.28
2023-04-02T19:50:51.825Z,3.00
2023-04-02T19:53:19.793Z,2.50
2023-04-02T19:55:47.210Z,3.20
2023-04-02T19:58:33.192Z,3.50
2023-04-02T20:01:01.578Z,2.92
2023-04-02T20:03:30.498Z,3.33
2023-04-02T20:05:59.902Z,3.50
2023-04-02T20:08:28.374Z,3.75
2023-04-02T20:13:23.485Z,3.30
2023-04-02T20:15:51.620Z,3.03
2023-04-02T20:18:20.631Z,3.47
2023-04-02T20:20:49.125Z,3.05
2023-04-02T20:23:17.463Z,3.55
2023-04-02T20:28:22.248Z,2.72
2023-04-02T20:30:50.504Z,2.72
2023-04-02T20:35:46.306Z,3.08
2023-04-02T20:38:13.574Z,2.92
2023-04-02T20:40:41.783Z,2.90
2023-04-02T20:43:10.725Z,2.80
2023-04-02T20:45:38.170Z,2.83
2023-04-02T20:48:05.945Z,2.63
2023-04-02T20:50:33.625Z,2.70
2023-04-02T20:53:02.890Z,3.38
2023-04-02T20:55:30.186Z,2.70
2023-04-02T20:57:57.439Z,3.22
2023-04-02T21:00:24.781Z,3.08
2023-04-02T21:02:52.048Z,3.57
2023-04-02T21:05:19.400Z,3.17
2023-04-02T21:07:48.758Z,3.10
2023-04-02T21:10:16.084Z,3.65
2023-04-02T21:12:43.473Z,3.22
2023-04-02T21:15:12.829Z,4.03
2023-04-02T21:17:40.093Z,4.32
2023-04-02T21:20:09.005Z,4.82
2023-04-02T21:22:36.997Z,4.40
2023-04-02T21:25:04.436Z,4.03
2023-04-02T21:27:31.659Z,4.50
2023-04-02T21:29:58.919Z,3.65
2023-04-02T21:32:26.193Z,3.95
2023-04-02T21:34:55.083Z,3.60
2023-04-02T21:37:22.279Z,3.67
2023-04-02T21:39:49.531Z,3.05
2023-04-02T21:42:17.057Z,3.33
2023-04-02T21:44:44.351Z,3.70
2023-04-02T21:47:11.683Z,2.88
2023-04-02T21:49:38.966Z,2.97
2023-04-02T21:52:06.329Z,2.88
2023-04-02T21:54:33.642Z,3.57
2023-04-02T21:57:00.973Z,3.58
2023-04-02T21:59:28.245Z,3.80
2023-04-02T22:01:55.628Z,3.92
2023-04-02T22:04:25.694Z,4.40
2023-04-02T22:06:53.950Z,3.75
2023-04-02T22:09:25.889Z,4.25
2023-04-02T22:12:00.203Z,3.55
2023-04-02T22:14:28.477Z,3.78
2023-04-02T22:16:56.294Z,4.03
2023-04-02T22:19:23.648Z,3.13
2023-04-02T22:21:51.740Z,4.30
2023-04-02T22:24:22.150Z,4.35
2023-04-02T22:26:50.062Z,4.20
2023-04-02T22:29:17.647Z,4.75
2023-04-02T22:31:45.120Z,4.82
2023-04-02T22:34:12.582Z,4.93
2023-04-02T22:36:40.226Z,4.57
2023-04-02T22:39:10.533Z,4.37
2023-04-02T22:41:38.534Z,5.60
2023-04-02T22:44:05.810Z,5.68
2023-04-02T22:46:33.237Z,5.50
2023-04-02T22:49:00.554Z,4.83
2023-04-02T22:51:28.176Z,4.80
2023-04-02T22:53:56.834Z,4.88
2023-04-02T22:56:32.380Z,4.80
2023-04-02T22:59:00.205Z,4.10
2023-04-02T23:01:31.878Z,3.92
2023-04-02T23:03:59.745Z,5.18
2023-04-02T23:06:28.094Z,4.03
2023-04-02T23:11:26.515Z,4.30
2023-04-02T23:13:56.866Z,4.10
2023-04-02T23:16:27.302Z,4.20
2023-04-02T23:18:55.692Z,3.83
2023-04-02T23:21:24.058Z,5.10
2023-04-02T23:23:51.731Z,4.55
2023-04-02T23:26:23.798Z,4.57
2023-04-02T23:28:51.685Z,4.18
2023-04-02T23:31:22.732Z,4.20
2023-04-02T23:33:52.263Z,3.63
2023-04-02T23:36:39.742Z,4.50
2023-04-02T23:39:11.426Z,3.88
2023-04-02T23:41:42.650Z,3.78
2023-04-02T23:44:10.497Z,3.78
2023-04-02T23:46:38.036Z,4.15
2023-04-02T23:49:05.496Z,3.50
2023-04-02T23:51:32.855Z,3.97
2023-04-02T23:54:00.489Z,3.63
2023-04-02T23:56:28.823Z,3.92
